Time;durP1;ratioP1;P1;durP2;ratioP2;P2;SDS_P1;SDS_P2;PMS_P1;PMS_P2;Temp;Humidity;BMP_temperature;BMP_pressure;BME280_temperature;BME280_humidity;BME280_pressure;Samples;Min_cycle;Max_cycle;Signal;HPM_P1;HPM_P2
2021/12/22 00:01:51;;;;;;;38.78;17.35;;;-3.40;99.90;;;;;;5092799;28;20405;-74
2021/12/22 00:04:20;;;;;;;36.00;16.73;;;-3.40;99.90;;;;;;5092313;28;20024;-74
2021/12/22 00:06:46;;;;;;;45.22;16.88;;;-3.40;99.90;;;;;;5092612;28;20111;-74
2021/12/22 00:09:11;;;;;;;41.20;17.23;;;-3.40;99.90;;;;;;5092686;28;20114;-73
2021/12/22 00:11:37;;;;;;;35.20;16.52;;;-3.50;99.90;;;;;;5092506;28;20402;-74
2021/12/22 00:14:03;;;;;;;40.30;17.25;;;-3.40;99.90;;;;;;5092187;28;20063;-74
2021/12/22 00:16:29;;;;;;;43.83;17.10;;;-3.40;99.90;;;;;;5092359;28;20127;-74
2021/12/22 00:18:54;;;;;;;39.78;17.40;;;-3.40;99.90;;;;;;5092301;28;20032;-74
2021/12/22 00:21:20;;;;;;;40.22;17.13;;;-3.40;99.90;;;;;;5070496;28;20099;-74
2021/12/22 00:23:46;;;;;;;43.70;17.40;;;-3.50;99.90;;;;;;5071731;28;20043;-73
2021/12/22 00:26:13;;;;;;;39.08;16.85;;;-3.40;99.90;;;;;;5071932;28;20024;-74
2021/12/22 00:28:40;;;;;;;41.03;17.83;;;-3.50;99.90;;;;;;5071863;28;20021;-74
2021/12/22 00:31:11;;;;;;;41.97;17.25;;;-3.50;99.90;;;;;;5071939;28;20086;-74
2021/12/22 00:33:45;;;;;;;33.83;16.23;;;-3.50;99.90;;;;;;5071825;28;20078;-74
2021/12/22 00:36:11;;;;;;;36.63;16.10;;;-3.50;99.90;;;;;;5090033;28;20025;-74
2021/12/22 00:38:37;;;;;;;37.55;17.10;;;-3.50;99.90;;;;;;5073808;28;20057;-74
2021/12/22 00:41:02;;;;;;;39.72;17.35;;;-3.50;99.90;;;;;;5091796;28;20039;-74
2021/12/22 00:43:28;;;;;;;40.42;16.65;;;-3.60;99.90;;;;;;5090957;28;20035;-74
2021/12/22 00:45:56;;;;;;;40.53;16.52;;;-3.60;99.90;;;;;;5091835;28;20072;-74
2021/12/22 00:48:22;;;;;;;39.05;17.63;;;-3.60;99.90;;;;;;5091778;28;20020;-74
2021/12/22 00:50:48;;;;;;;36.45;16.70;;;-3.60;99.90;;;;;;5091365;28;20032;-74
2021/12/22 00:53:14;;;;;;;42.22;17.58;;;-3.70;99.90;;;;;;5091115;28;20085;-74
2021/12/22 00:55:39;;;;;;;37.38;17.35;;;-3.60;99.90;;;;;;5091698;28;20035;-74
2021/12/22 00:58:06;;;;;;;37.13;15.73;;;-3.60;99.90;;;;;;5073561;28;20031;-74
2021/12/22 01:00:32;;;;;;;40.38;16.15;;;-3.60;99.90;;;;;;5091746;28;20024;-74
2021/12/22 01:02:57;;;;;;;42.42;15.93;;;-3.60;99.90;;;;;;5073507;28;20066;-73
2021/12/22 01:05:25;;;;;;;34.65;16.38;;;-3.70;99.90;;;;;;5091654;28;20051;-73
2021/12/22 01:07:50;;;;;;;42.42;17.13;;;-3.70;99.90;;;;;;5091754;28;20114;-73
2021/12/22 01:10:21;;;;;;;39.75;15.23;;;-3.70;99.90;;;;;;5091613;28;20067;-73
2021/12/22 01:12:47;;;;;;;37.83;16.92;;;-3.70;99.90;;;;;;5073348;28;20042;-73
2021/12/22 01:15:13;;;;;;;41.67;16.67;;;-3.70;99.90;;;;;;5091310;28;20046;-73
2021/12/22 01:17:44;;;;;;;36.00;16.83;;;-3.70;99.90;;;;;;5091430;28;20024;-73
2021/12/22 01:20:25;;;;;;;41.47;16.55;;;-3.70;99.90;;;;;;5085081;28;20538;-73
2021/12/22 01:22:52;;;;;;;34.80;15.25;;;-3.70;99.90;;;;;;5071241;28;20041;-73
2021/12/22 01:25:23;;;;;;;38.13;15.75;;;-3.80;99.90;;;;;;5069763;28;20099;-73
2021/12/22 01:27:49;;;;;;;35.70;15.88;;;-3.70;99.90;;;;;;5071318;28;20515;-73
2021/12/22 01:30:20;;;;;;;39.30;15.88;;;-3.70;99.90;;;;;;5071181;28;20103;-73
2021/12/22 01:32:47;;;;;;;36.83;16.45;;;-3.80;99.90;;;;;;5071103;28;20036;-73
2021/12/22 01:35:16;;;;;;;36.92;16.85;;;-3.70;99.90;;;;;;5071019;28;20052;-73
2021/12/22 01:37:41;;;;;;;37.10;16.08;;;-3.70;99.90;;;;;;5071002;28;20021;-73
2021/12/22 01:40:09;;;;;;;33.80;16.05;;;-3.80;99.90;;;;;;5052963;28;20082;-72
2021/12/22 01:42:35;;;;;;;38.17;16.50;;;-3.80;99.90;;;;;;5071072;28;20021;-73
2021/12/22 01:50:41;;;;;;;36.78;16.33;;;-3.80;99.90;;;;;;5070879;28;20036;-73
2021/12/22 01:53:31;;;;;;;35.25;16.25;;;-3.80;99.90;;;;;;5069520;28;20530;-73
2021/12/22 01:56:04;;;;;;;39.83;17.23;;;-3.90;99.90;;;;;;5074475;28;20049;-73
2021/12/22 01:58:39;;;;;;;41.13;16.85;;;-3.90;99.90;;;;;;5094869;28;20024;-72
2021/12/22 02:01:06;;;;;;;40.65;16.73;;;-3.90;99.90;;;;;;5094840;28;20081;-73
2021/12/22 02:03:32;;;;;;;36.22;15.82;;;-3.90;99.90;;;;;;5094727;28;20039;-73
2021/12/22 02:05:58;;;;;;;37.47;16.73;;;-3.90;99.90;;;;;;5094522;28;20036;-73
2021/12/22 02:08:24;;;;;;;43.47;16.60;;;-3.90;99.90;;;;;;5094897;28;20032;-72
2021/12/22 02:10:49;;;;;;;37.45;16.48;;;-4.00;99.90;;;;;;5094636;28;20040;-73
2021/12/22 02:13:22;;;;;;;43.88;17.45;;;-3.90;99.90;;;;;;5094367;28;20028;-73
2021/12/22 02:15:48;;;;;;;40.38;17.20;;;-3.90;99.90;;;;;;5076239;28;20162;-73
2021/12/22 02:18:19;;;;;;;38.55;17.17;;;-3.90;99.90;;;;;;5094550;28;20386;-73
2021/12/22 02:20:49;;;;;;;42.25;16.80;;;-3.90;99.90;;;;;;5083330;28;20029;-73
2021/12/22 02:23:15;;;;;;;42.33;16.80;;;-3.90;99.90;;;;;;5056065;28;20025;-73
2021/12/22 02:25:48;;;;;;;38.92;17.02;;;-4.00;99.90;;;;;;5074046;28;20070;-73
2021/12/22 02:28:23;;;;;;;38.35;16.08;;;-4.00;99.90;;;;;;5074216;28;20021;-73
2021/12/22 02:30:50;;;;;;;41.72;16.73;;;-4.00;99.90;;;;;;5074096;28;20078;-73
2021/12/22 02:35:54;;;;;;;34.63;15.38;;;-4.00;99.90;;;;;;5088588;28;20428;-73
2021/12/22 02:38:19;;;;;;;36.58;15.50;;;-4.00;99.90;;;;;;5075849;28;20074;-73
2021/12/22 02:40:49;;;;;;;41.00;16.70;;;-4.00;99.90;;;;;;5093960;28;20024;-73
2021/12/22 02:43:21;;;;;;;40.63;16.33;;;-4.00;99.90;;;;;;5075790;28;20021;-73
2021/12/22 02:45:47;;;;;;;45.08;16.90;;;-4.00;99.90;;;;;;5075814;28;20035;-73
2021/12/22 02:48:13;;;;;;;38.72;16.75;;;-4.10;99.90;;;;;;5094068;28;20040;-73
2021/12/22 02:50:40;;;;;;;35.17;16.02;;;-4.10;99.90;;;;;;5093640;28;20020;-73
2021/12/22 02:53:10;;;;;;;42.38;17.45;;;-4.10;99.90;;;;;;5075469;28;20047;-73
2021/12/22 02:58:10;;;;;;;37.85;15.40;;;-4.10;99.90;;;;;;5093954;28;20020;-73
2021/12/22 03:00:49;;;;;;;39.40;16.77;;;-4.10;99.90;;;;;;5093901;28;20020;-73
2021/12/22 03:03:32;;;;;;;42.90;15.85;;;-4.10;99.90;;;;;;5093425;28;20035;-73
2021/12/22 03:06:01;;;;;;;42.90;16.40;;;-4.10;99.90;;;;;;5074195;28;20035;-73
2021/12/22 03:08:27;;;;;;;42.03;16.30;;;-4.20;99.90;;;;;;5093827;28;20028;-73
2021/12/22 03:10:53;;;;;;;40.25;16.48;;;-4.10;99.90;;;;;;5093473;28;20378;-73
2021/12/22 03:13:23;;;;;;;38.92;15.95;;;-4.20;99.90;;;;;;5093292;28;20051;-73
2021/12/22 03:15:48;;;;;;;35.05;15.80;;;-4.20;99.90;;;;;;5093328;28;20108;-73
2021/12/22 03:18:14;;;;;;;35.53;15.00;;;-4.20;99.90;;;;;;5093271;28;20411;-73
2021/12/22 03:20:41;;;;;;;40.40;16.35;;;-4.20;99.90;;;;;;5082783;28;20043;-73
2021/12/22 03:23:07;;;;;;;40.00;16.15;;;-4.20;99.90;;;;;;5072881;28;20073;-73
2021/12/22 03:25:33;;;;;;;33.33;15.55;;;-4.20;99.90;;;;;;5072736;28;20111;-73
2021/12/22 03:28:03;;;;;;;38.53;16.48;;;-4.20;99.90;;;;;;5072963;28;20046;-73
2021/12/22 03:30:28;;;;;;;40.83;16.10;;;-4.30;99.90;;;;;;5072912;28;20135;-73
2021/12/22 03:32:54;;;;;;;36.42;16.65;;;-4.30;99.90;;;;;;5072685;28;20107;-73
2021/12/22 03:35:21;;;;;;;39.42;15.63;;;-4.30;99.90;;;;;;5083860;28;20351;-73
2021/12/22 03:37:54;;;;;;;36.63;15.18;;;-4.30;99.90;;;;;;5092927;28;20359;-73
2021/12/22 03:40:22;;;;;;;40.55;16.35;;;-4.30;99.90;;;;;;5092820;28;20013;-73
2021/12/22 03:42:48;;;;;;;38.30;15.68;;;-4.30;99.90;;;;;;5092947;28;20115;-73
2021/12/22 03:45:15;;;;;;;39.25;15.38;;;-4.30;99.90;;;;;;5092845;28;20533;-73
2021/12/22 03:47:41;;;;;;;36.97;15.38;;;-4.30;99.90;;;;;;5092797;28;20089;-73
2021/12/22 03:50:08;;;;;;;41.75;16.20;;;-4.30;99.90;;;;;;5073938;28;20032;-73
2021/12/22 03:52:34;;;;;;;39.45;15.10;;;-4.30;99.90;;;;;;5092535;28;20060;-73
2021/12/22 03:55:00;;;;;;;42.35;15.60;;;-4.30;99.90;;;;;;5092418;28;20055;-73
2021/12/22 03:57:27;;;;;;;36.20;16.08;;;-4.30;99.90;;;;;;5092622;28;20032;-73
2021/12/22 03:59:55;;;;;;;41.72;15.48;;;-4.30;99.90;;;;;;5074195;28;20031;-73
2021/12/22 04:02:22;;;;;;;36.10;15.27;;;-4.30;99.90;;;;;;5092541;28;20024;-73
2021/12/22 04:04:49;;;;;;;43.03;17.23;;;-4.30;99.90;;;;;;5092260;28;20112;-73
2021/12/22 04:07:16;;;;;;;42.10;16.08;;;-4.30;99.90;;;;;;5092349;28;20052;-73
2021/12/22 04:09:42;;;;;;;37.10;17.08;;;-4.30;99.90;;;;;;5092172;28;20115;-73
2021/12/22 04:12:08;;;;;;;35.72;14.90;;;-4.30;99.90;;;;;;5092368;28;20557;-73
2021/12/22 04:14:34;;;;;;;36.90;15.82;;;-4.30;99.90;;;;;;5073792;28;20100;-73
2021/12/22 04:16:59;;;;;;;38.45;16.58;;;-4.30;99.90;;;;;;5091632;28;20095;-73
2021/12/22 04:19:25;;;;;;;36.08;15.57;;;-4.30;99.90;;;;;;5091921;28;20056;-73
2021/12/22 04:21:51;;;;;;;43.28;17.15;;;-4.40;99.90;;;;;;5092092;28;20081;-73
2021/12/22 04:24:18;;;;;;;36.83;15.27;;;-4.40;99.90;;;;;;5091938;28;20023;-73
2021/12/22 04:26:43;;;;;;;38.00;15.95;;;-4.40;99.90;;;;;;5092202;28;20067;-73
2021/12/22 04:29:12;;;;;;;41.58;15.43;;;-4.40;99.90;;;;;;5092111;28;20055;-73
2021/12/22 04:31:39;;;;;;;39.08;16.38;;;-4.40;99.90;;;;;;5091783;28;20016;-73
2021/12/22 04:34:08;;;;;;;41.92;15.77;;;-4.40;99.90;;;;;;5091737;28;20043;-73
2021/12/22 04:36:38;;;;;;;41.72;17.08;;;-4.40;99.90;;;;;;5092007;28;20376;-73
2021/12/22 04:39:05;;;;;;;37.63;14.98;;;-4.40;99.90;;;;;;5091696;28;20045;-73
2021/12/22 04:41:31;;;;;;;40.50;16.80;;;-4.40;99.90;;;;;;5092035;28;20386;-73
2021/12/22 04:43:56;;;;;;;42.45;16.17;;;-4.40;99.90;;;;;;5091772;28;20028;-73
2021/12/22 04:46:22;;;;;;;46.08;16.63;;;-4.40;99.90;;;;;;5091374;28;20173;-73
2021/12/22 04:48:48;;;;;;;45.50;15.52;;;-4.40;99.90;;;;;;5091636;28;20422;-73
2021/12/22 04:51:25;;;;;;;45.03;16.13;;;-4.40;99.90;;;;;;5073489;28;20108;-73
2021/12/22 04:56:34;;;;;;;43.35;15.23;;;-4.30;99.90;;;;;;5092135;28;20081;-73
2021/12/22 04:59:00;;;;;;;43.20;15.95;;;-4.30;99.90;;;;;;5091759;28;20024;-73
2021/12/22 05:01:26;;;;;;;46.47;16.58;;;-4.30;99.90;;;;;;5091783;28;20016;-73
2021/12/22 05:03:53;;;;;;;44.45;15.90;;;-4.30;99.90;;;;;;5091694;28;20519;-73
2021/12/22 05:06:19;;;;;;;48.00;16.42;;;-4.30;99.90;;;;;;5091609;28;20024;-73
2021/12/22 05:08:44;;;;;;;39.67;15.40;;;-4.30;99.90;;;;;;5091985;28;20108;-73
2021/12/22 05:11:10;;;;;;;43.85;16.38;;;-4.30;99.90;;;;;;5091585;28;20033;-73
2021/12/22 05:13:36;;;;;;;40.42;15.85;;;-4.30;99.90;;;;;;5091431;28;20052;-73
2021/12/22 05:16:04;;;;;;;40.85;14.88;;;-4.30;99.90;;;;;;5091786;28;20013;-73
2021/12/22 05:18:50;;;;;;;34.50;14.15;;;-4.30;99.90;;;;;;5091463;28;20409;-73
2021/12/22 05:21:15;;;;;;;44.35;15.48;;;-4.30;99.90;;;;;;5091363;28;20103;-73
2021/12/22 05:23:41;;;;;;;36.28;15.45;;;-4.30;99.90;;;;;;5073262;28;20119;-73
2021/12/22 05:26:07;;;;;;;37.10;14.80;;;-4.30;99.90;;;;;;5091407;28;20052;-73
2021/12/22 05:28:32;;;;;;;42.58;15.13;;;-4.30;99.90;;;;;;5092167;28;20035;-73
2021/12/22 05:30:58;;;;;;;36.08;15.05;;;-4.30;99.90;;;;;;5077203;28;20028;-73
2021/12/22 05:33:23;;;;;;;41.55;16.05;;;-4.20;99.90;;;;;;5095390;28;20115;-73
2021/12/22 05:35:49;;;;;;;42.00;16.23;;;-4.20;99.90;;;;;;5095205;28;20020;-73
2021/12/22 05:38:15;;;;;;;38.80;15.38;;;-4.20;99.90;;;;;;5095279;28;20039;-73
2021/12/22 05:40:41;;;;;;;41.38;15.02;;;-4.20;99.90;;;;;;5095074;28;20471;-73
2021/12/22 05:43:06;;;;;;;36.03;14.50;;;-4.20;99.90;;;;;;5095220;28;20032;-73
2021/12/22 05:45:32;;;;;;;38.53;14.52;;;-4.20;99.90;;;;;;5095162;28;20027;-73
2021/12/22 05:47:58;;;;;;;38.33;15.25;;;-4.20;99.90;;;;;;5095279;28;20386;-73
2021/12/22 05:50:24;;;;;;;38.88;15.95;;;-4.20;99.90;;;;;;5094837;28;20035;-73
2021/12/22 05:52:50;;;;;;;38.25;15.90;;;-4.10;99.90;;;;;;5095031;28;20049;-73
2021/12/22 05:55:16;;;;;;;33.58;13.80;;;-4.10;99.90;;;;;;5094801;28;20026;-73
2021/12/22 05:57:42;;;;;;;34.40;14.23;;;-4.10;99.90;;;;;;5076653;28;20115;-73
2021/12/22 06:00:08;;;;;;;40.38;14.25;;;-4.20;99.90;;;;;;5095093;28;20039;-73
2021/12/22 06:02:34;;;;;;;34.97;14.07;;;-4.20;99.90;;;;;;5094587;28;20043;-73
2021/12/22 06:04:59;;;;;;;34.83;13.90;;;-4.20;99.90;;;;;;5094764;28;20023;-73
2021/12/22 06:07:25;;;;;;;37.15;13.55;;;-4.20;99.90;;;;;;5094849;28;20125;-73
2021/12/22 06:09:50;;;;;;;41.33;14.57;;;-4.10;99.90;;;;;;5094567;28;20043;-72
2021/12/22 06:12:16;;;;;;;42.13;13.65;;;-4.10;99.90;;;;;;5076364;28;20023;-73
2021/12/22 06:14:42;;;;;;;33.10;13.15;;;-4.10;99.90;;;;;;5094421;28;20051;-73
2021/12/22 06:17:07;;;;;;;29.77;13.25;;;-4.20;99.90;;;;;;5094776;28;20050;-73
2021/12/22 06:19:33;;;;;;;40.92;13.98;;;-4.20;99.90;;;;;;5076005;28;20461;-73
2021/12/22 06:21:59;;;;;;;32.15;12.82;;;-4.20;99.90;;;;;;5094662;28;20530;-73
2021/12/22 06:24:24;;;;;;;35.63;13.15;;;-4.20;99.90;;;;;;5094283;28;20390;-73
2021/12/22 06:26:50;;;;;;;35.80;14.27;;;-4.20;99.90;;;;;;5094569;28;20060;-73
2021/12/22 06:29:15;;;;;;;31.05;13.13;;;-4.20;99.90;;;;;;5094399;28;20331;-72
2021/12/22 06:31:41;;;;;;;34.30;13.30;;;-4.30;99.90;;;;;;5094021;28;20032;-72
2021/12/22 06:34:06;;;;;;;33.92;13.88;;;-4.30;99.90;;;;;;5076031;28;20036;-72
2021/12/22 06:36:33;;;;;;;34.45;14.48;;;-4.30;99.90;;;;;;5094289;28;20032;-72
2021/12/22 06:38:59;;;;;;;35.08;13.45;;;-4.30;99.90;;;;;;5076092;28;20405;-73
2021/12/22 06:41:24;;;;;;;35.63;13.27;;;-4.30;99.90;;;;;;5094147;28;20438;-73
2021/12/22 06:43:50;;;;;;;35.42;12.98;;;-4.30;99.90;;;;;;5094143;28;20024;-74
2021/12/22 06:46:15;;;;;;;34.10;13.27;;;-4.30;99.90;;;;;;5094251;28;20535;-74
2021/12/22 06:48:41;;;;;;;33.22;12.98;;;-4.30;99.90;;;;;;5094047;28;20807;-72
2021/12/22 06:51:06;;;;;;;39.25;14.52;;;-4.30;99.90;;;;;;5075377;28;20081;-74
2021/12/22 06:53:34;;;;;;;31.90;12.63;;;-4.30;99.90;;;;;;5093933;28;20458;-75
2021/12/22 06:56:01;;;;;;;32.70;13.70;;;-4.30;99.90;;;;;;5093688;28;20539;-72
2021/12/22 06:58:26;;;;;;;42.42;14.45;;;-4.30;99.90;;;;;;5093809;28;20024;-72
2021/12/22 07:00:52;;;;;;;38.45;14.40;;;-4.30;99.90;;;;;;5094008;28;20103;-73
2021/12/22 07:03:18;;;;;;;43.50;15.38;;;-4.30;99.90;;;;;;5093820;28;20067;-73
2021/12/22 07:05:43;;;;;;;39.72;15.80;;;-4.40;99.90;;;;;;5075550;28;20020;-72
2021/12/22 07:08:09;;;;;;;36.47;14.68;;;-4.40;99.90;;;;;;5093836;28;20122;-72
2021/12/22 07:10:35;;;;;;;38.85;15.38;;;-4.40;99.90;;;;;;5093662;28;20054;-72
2021/12/22 07:13:00;;;;;;;34.38;14.52;;;-4.40;99.90;;;;;;5075143;28;20115;-72
2021/12/22 07:15:26;;;;;;;34.72;15.57;;;-4.40;99.90;;;;;;5093537;28;20504;-72
2021/12/22 07:17:51;;;;;;;38.45;14.82;;;-4.40;99.90;;;;;;5093708;28;20015;-73
2021/12/22 07:20:18;;;;;;;39.95;14.77;;;-4.40;99.90;;;;;;5086352;28;20088;-75
2021/12/22 07:22:44;;;;;;;35.53;15.07;;;-4.50;99.90;;;;;;5085276;28;20020;-75
2021/12/22 07:25:12;;;;;;;44.05;16.17;;;-4.50;99.90;;;;;;5071653;28;20391;-73
2021/12/22 07:27:38;;;;;;;41.15;16.05;;;-4.50;99.90;;;;;;5075015;28;20020;-75
2021/12/22 07:30:04;;;;;;;38.33;15.00;;;-4.50;99.90;;;;;;5066685;28;20096;-76
2021/12/22 07:32:30;;;;;;;45.58;14.35;;;-4.40;99.90;;;;;;5092521;28;20493;-75
2021/12/22 07:35:06;;;;;;;39.22;14.48;;;-4.40;99.90;;;;;;5070109;28;20024;-75
2021/12/22 07:37:38;;;;;;;37.67;14.30;;;-4.50;99.90;;;;;;5085822;28;20069;-75
2021/12/22 07:40:08;;;;;;;;;;;-4.40;99.90;;;;;;5085221;28;20016;-73
2021/12/22 07:42:34;;;;;;;35.25;14.82;;;-4.40;99.90;;;;;;5087071;28;20012;-75
2021/12/22 07:44:59;;;;;;;38.10;13.45;;;-4.40;99.90;;;;;;5084660;28;20035;-75
2021/12/22 07:47:25;;;;;;;46.95;14.23;;;-4.40;99.90;;;;;;5085934;28;20031;-75
2021/12/22 07:49:50;;;;;;;37.40;15.18;;;-4.40;99.90;;;;;;5087900;28;20137;-74
2021/12/22 07:52:16;;;;;;;36.97;13.52;;;-4.40;99.90;;;;;;5093124;28;20402;-74
2021/12/22 07:54:42;;;;;;;37.65;14.05;;;-4.40;99.90;;;;;;5069543;28;20120;-74
2021/12/22 07:57:07;;;;;;;36.00;13.75;;;-4.40;99.90;;;;;;5089603;28;20093;-74
2021/12/22 07:59:33;;;;;;;38.83;14.32;;;-4.30;99.90;;;;;;5090194;28;20036;-74
2021/12/22 08:01:59;;;;;;;40.45;15.15;;;-4.30;99.90;;;;;;5090250;28;20054;-74
2021/12/22 08:04:24;;;;;;;36.08;14.45;;;-4.20;99.90;;;;;;5090740;28;20027;-74
2021/12/22 08:06:50;;;;;;;43.25;16.08;;;-4.20;99.90;;;;;;5086586;28;20098;-74
2021/12/22 08:09:16;;;;;;;37.25;14.85;;;-4.20;99.90;;;;;;5091692;28;20024;-74
2021/12/22 08:11:42;;;;;;;36.17;15.57;;;-4.20;99.90;;;;;;5089172;28;20027;-74
2021/12/22 08:14:08;;;;;;;36.42;14.90;;;-4.20;99.90;;;;;;5089083;28;20351;-74
2021/12/22 08:16:33;;;;;;;39.45;16.02;;;-4.10;99.90;;;;;;5088401;28;20025;-74
2021/12/22 08:18:59;;;;;;;40.28;15.98;;;-4.10;99.90;;;;;;5090661;28;20138;-74
2021/12/22 08:21:25;;;;;;;43.75;16.35;;;-4.00;99.90;;;;;;5092103;28;20035;-74
2021/12/22 08:23:51;;;;;;;46.58;16.05;;;-4.00;99.90;;;;;;5091405;28;20023;-74
2021/12/22 08:26:16;;;;;;;40.67;15.43;;;-4.00;99.90;;;;;;5092379;28;20031;-74
2021/12/22 08:28:42;;;;;;;44.30;16.15;;;-3.90;99.90;;;;;;5087039;28;20055;-74
2021/12/22 08:31:08;;;;;;;37.72;15.63;;;-3.90;99.90;;;;;;5094307;28;20031;-74
2021/12/22 08:33:38;;;;;;;44.58;17.40;;;-3.80;99.90;;;;;;5097650;28;20103;-74
2021/12/22 08:38:51;;;;;;;35.83;15.38;;;-3.70;99.90;;;;;;5098297;28;20070;-74
2021/12/22 08:41:30;;;;;;;43.38;15.23;;;-3.70;99.90;;;;;;5098062;28;20180;-75
2021/12/22 08:44:02;;;;;;;34.83;16.08;;;-3.60;99.90;;;;;;5100699;28;20414;-74
2021/12/22 08:46:29;;;;;;;38.45;15.93;;;-3.50;99.90;;;;;;5097407;28;20035;-74
2021/12/22 08:48:56;;;;;;;37.38;16.38;;;-3.50;99.90;;;;;;5094960;28;20035;-79
2021/12/22 08:51:22;;;;;;;46.05;16.05;;;-3.40;99.90;;;;;;5100043;28;20070;-74
2021/12/22 08:53:48;;;;;;;35.83;15.70;;;-3.30;99.90;;;;;;5082645;28;20114;-74
2021/12/22 08:56:14;;;;;;;32.67;14.65;;;-3.30;99.90;;;;;;5101031;28;20039;-74
2021/12/22 08:58:40;;;;;;;40.13;15.30;;;-3.10;99.90;;;;;;5101262;28;20023;-75
2021/12/22 09:01:06;;;;;;;43.35;16.58;;;-3.10;99.90;;;;;;5101418;28;20095;-74
2021/12/22 09:03:32;;;;;;;43.95;16.48;;;-3.00;99.90;;;;;;5104238;28;20388;-74
2021/12/22 09:05:59;;;;;;;46.17;16.17;;;-2.90;99.90;;;;;;5106178;28;20099;-74
2021/12/22 09:08:24;;;;;;;38.20;16.17;;;-2.80;99.90;;;;;;5113509;28;20031;-74
2021/12/22 09:10:50;;;;;;;41.50;16.05;;;-2.80;99.90;;;;;;5106722;28;20032;-74
2021/12/22 09:13:17;;;;;;;39.92;17.00;;;-2.70;99.90;;;;;;5104993;28;20024;-74
2021/12/22 09:15:43;;;;;;;41.83;16.17;;;-2.60;99.90;;;;;;5113387;28;20047;-73
2021/12/22 09:18:09;;;;;;;36.97;15.77;;;-2.50;99.90;;;;;;5116151;28;20032;-72
2021/12/22 09:20:34;;;;;;;35.42;15.50;;;-2.50;99.90;;;;;;5106587;28;20085;-72
2021/12/22 09:23:00;;;;;;;43.78;18.20;;;-2.40;99.90;;;;;;5077371;28;20505;-73
2021/12/22 09:25:25;;;;;;;36.97;15.77;;;-2.30;99.90;;;;;;5095407;28;20107;-73
2021/12/22 09:27:51;;;;;;;40.45;15.80;;;-2.30;99.90;;;;;;5095497;28;20028;-73
2021/12/22 09:30:17;;;;;;;37.40;15.93;;;-2.20;99.90;;;;;;5095563;28;20059;-73
2021/12/22 09:32:43;;;;;;;37.55;15.98;;;-2.10;99.90;;;;;;5076937;28;20518;-73
2021/12/22 09:35:09;;;;;;;41.53;15.52;;;-2.10;99.90;;;;;;5086655;28;20039;-73
2021/12/22 09:37:34;;;;;;;38.28;16.45;;;-2.00;99.90;;;;;;5111219;28;20028;-72
2021/12/22 09:40:01;;;;;;;31.58;14.52;;;-1.90;99.90;;;;;;5104840;28;20012;-72
2021/12/22 09:42:26;;;;;;;38.97;14.57;;;-1.80;99.90;;;;;;5101719;28;20039;-72
2021/12/22 09:44:52;;;;;;;33.08;15.13;;;-1.80;99.90;;;;;;5095457;28;20032;-70
2021/12/22 09:47:27;;;;;;;36.85;15.85;;;-1.70;99.90;;;;;;5114937;28;20473;-73
2021/12/22 09:50:38;;;;;;;41.17;15.98;;;-1.60;99.90;;;;;;5105470;28;20084;-73
2021/12/22 09:52:45;;;;;;;34.25;14.52;;;-1.60;99.90;;;;;;5091410;28;20442;-73
2021/12/22 09:55:11;;;;;;;31.20;14.30;;;-1.50;99.90;;;;;;5095042;28;20047;-73
2021/12/22 09:57:36;;;;;;;37.92;15.52;;;-1.40;99.90;;;;;;5094990;28;20032;-73
2021/12/22 10:00:06;;;;;;;31.70;14.98;;;-1.40;99.90;;;;;;5095096;28;20027;-73
2021/12/22 10:02:31;;;;;;;36.22;14.73;;;-1.30;99.90;;;;;;5094922;28;20119;-73
2021/12/22 10:04:58;;;;;;;31.10;13.60;;;-1.20;99.90;;;;;;5094914;28;20435;-73
2021/12/22 10:07:27;;;;;;;35.53;14.73;;;-1.10;99.90;;;;;;5094559;28;20046;-73
2021/12/22 10:09:55;;;;;;;30.05;14.55;;;-1.00;99.90;;;;;;5094533;28;20020;-73
2021/12/22 10:12:26;;;;;;;36.50;15.70;;;-1.00;99.90;;;;;;5094845;28;20081;-73
2021/12/22 10:15:00;;;;;;;32.47;14.32;;;-0.90;99.90;;;;;;5076118;28;20505;-73
2021/12/22 10:17:36;;;;;;;33.22;15.02;;;-0.90;99.90;;;;;;5094719;28;20020;-73
2021/12/22 10:20:10;;;;;;;31.10;14.77;;;-0.80;99.90;;;;;;5094314;28;20036;-72
2021/12/22 10:22:43;;;;;;;33.20;14.68;;;-0.80;99.90;;;;;;5094475;28;20066;-72
2021/12/22 10:25:14;;;;;;;30.20;14.35;;;-0.70;99.90;;;;;;5094217;28;20046;-74
2021/12/22 10:27:43;;;;;;;35.67;14.43;;;-0.70;99.90;;;;;;5086495;28;20465;-73
2021/12/22 10:30:31;;;;;;;31.95;14.23;;;-0.60;99.90;;;;;;5104822;28;20039;-73
2021/12/22 10:33:06;;;;;;;44.45;14.60;;;-0.60;99.90;;;;;;5082685;28;20032;-73
2021/12/22 10:35:34;;;;;;;32.00;14.02;;;-0.50;99.90;;;;;;5102083;28;20020;-73
2021/12/22 10:38:01;;;;;;;33.00;15.18;;;-0.40;99.90;;;;;;5103051;28;20035;-73
2021/12/22 10:40:30;;;;;;;36.42;15.43;;;-0.40;99.90;;;;;;5100410;28;20035;-73
2021/12/22 10:42:57;;;;;;;30.58;14.50;;;-0.30;99.90;;;;;;5105624;28;20034;-73
2021/12/22 10:45:24;;;;;;;31.30;13.63;;;-0.20;99.90;;;;;;5104858;28;20031;-73
2021/12/22 10:50:37;;;;;;;29.42;13.20;;;-0.20;99.90;;;;;;5104545;28;20804;-73
2021/12/22 10:53:03;;;;;;;34.10;14.05;;;-0.10;99.90;;;;;;5084684;28;20024;-73
2021/12/22 10:55:45;;;;;;;33.90;13.48;;;-0.10;99.90;;;;;;5085109;28;20429;-72
2021/12/22 10:58:30;;;;;;;29.85;13.75;;;-0.10;99.90;;;;;;5102808;28;20044;-72
2021/12/22 11:01:00;;;;;;;31.63;13.32;;;0.00;99.90;;;;;;5103800;28;20362;-73
2021/12/22 11:03:37;;;;;;;30.33;13.07;;;0.10;99.90;;;;;;5099023;28;20030;-74
2021/12/22 11:06:10;;;;;;;28.25;14.00;;;0.20;99.90;;;;;;5095918;28;20055;-73
2021/12/22 11:08:37;;;;;;;30.25;14.15;;;0.20;99.90;;;;;;5093608;28;20180;-75
2021/12/22 11:11:14;;;;;;;27.73;13.93;;;0.40;99.90;;;;;;5098884;28;20032;-74
2021/12/22 11:13:40;;;;;;;29.42;13.57;;;0.40;99.90;;;;;;5102331;28;20024;-74
2021/12/22 11:16:13;;;;;;;27.70;13.40;;;0.50;99.90;;;;;;5099644;28;20027;-74
2021/12/22 11:18:39;;;;;;;31.60;13.38;;;0.50;99.90;;;;;;5099539;28;20035;-74
2021/12/22 11:21:11;;;;;;;27.77;13.52;;;0.50;99.90;;;;;;5099569;28;20017;-74
2021/12/22 11:23:36;;;;;;;28.35;12.77;;;0.50;99.90;;;;;;5099327;28;20038;-74
2021/12/22 11:26:03;;;;;;;28.95;13.75;;;0.50;99.90;;;;;;5098979;28;20121;-74
2021/12/22 11:28:30;;;;;;;22.23;12.05;;;0.50;99.90;;;;;;5097204;28;20553;-74
2021/12/22 11:30:57;;;;;;;28.17;13.23;;;0.60;99.90;;;;;;5099241;28;20028;-74
2021/12/22 11:33:25;;;;;;;24.13;13.10;;;0.60;99.90;;;;;;5104566;28;20102;-74
2021/12/22 11:35:52;;;;;;;29.40;13.23;;;0.50;99.90;;;;;;5102183;28;20020;-74
2021/12/22 11:38:18;;;;;;;23.55;11.38;;;0.60;99.90;;;;;;5105996;28;20127;-74
2021/12/22 11:40:53;;;;;;;27.48;13.30;;;0.60;99.90;;;;;;5082447;28;20044;-74
2021/12/22 11:43:19;;;;;;;25.85;12.82;;;0.70;99.90;;;;;;5098904;28;20023;-74
2021/12/22 11:45:47;;;;;;;23.00;11.85;;;0.70;99.90;;;;;;5099715;28;20303;-74
2021/12/22 11:48:14;;;;;;;22.17;10.95;;;0.70;99.90;;;;;;5107358;28;20073;-74
2021/12/22 11:50:45;;;;;;;23.10;11.95;;;0.80;99.90;;;;;;5096739;28;20082;-75
2021/12/22 11:53:11;;;;;;;25.85;12.45;;;0.80;99.90;;;;;;5092738;28;20096;-75
2021/12/22 11:55:41;;;;;;;30.42;12.70;;;0.90;99.90;;;;;;5092668;28;20437;-75
2021/12/22 11:58:47;;;;;;;32.40;12.43;;;0.90;99.90;;;;;;5092631;28;20105;-74
2021/12/22 12:01:13;;;;;;;23.63;11.98;;;0.90;99.90;;;;;;5089137;28;20131;-71
2021/12/22 12:03:46;;;;;;;20.73;11.98;;;0.90;99.90;;;;;;5092100;28;20099;-73
2021/12/22 12:06:16;;;;;;;24.60;11.30;;;0.90;99.90;;;;;;5092597;28;20020;-73
2021/12/22 12:08:47;;;;;;;25.10;12.57;;;0.90;99.90;;;;;;5092820;28;20093;-72
2021/12/22 12:11:42;;;;;;;24.88;12.45;;;0.90;99.90;;;;;;5092523;28;20039;-72
2021/12/22 12:14:31;;;;;;;21.92;10.15;;;1.00;99.90;;;;;;5092297;28;20203;-73
2021/12/22 12:23:41;;;;;;;23.20;10.03;;;1.10;99.90;;;;;;5090933;28;20030;-72
2021/12/22 12:26:27;;;;;;;22.50;10.25;;;1.00;99.90;;;;;;5011317;28;20041;-72
2021/12/22 12:28:52;;;;;;;21.55;11.27;;;1.00;99.90;;;;;;5029624;28;20041;-75
2021/12/22 12:31:38;;;;;;;21.65;9.80;;;0.90;99.90;;;;;;5027826;28;20033;-72
2021/12/22 12:34:24;;;;;;;19.40;9.60;;;1.00;99.90;;;;;;5027763;28;20026;-72
2021/12/22 12:36:50;;;;;;;19.48;9.48;;;1.10;99.90;;;;;;5028606;28;20029;-72
2021/12/22 12:39:35;;;;;;;19.95;9.48;;;1.00;99.90;;;;;;5028913;28;20022;-73
2021/12/22 12:42:01;;;;;;;21.92;9.82;;;1.00;99.90;;;;;;5029103;28;20037;-72
2021/12/22 12:44:28;;;;;;;25.88;10.70;;;0.90;99.90;;;;;;5029025;28;20029;-73
2021/12/22 12:46:54;;;;;;;20.13;10.10;;;0.90;99.90;;;;;;5029613;28;20027;-72
2021/12/22 12:49:19;;;;;;;21.85;10.55;;;0.90;99.90;;;;;;5028409;28;20112;-72
2021/12/22 12:51:47;;;;;;;21.77;10.68;;;0.90;99.90;;;;;;5025999;28;20034;-72
2021/12/22 12:54:18;;;;;;;19.35;10.20;;;0.90;99.90;;;;;;5028315;28;20033;-72
2021/12/22 12:56:56;;;;;;;20.07;9.90;;;1.00;99.90;;;;;;5002839;28;20030;-72
2021/12/22 12:59:41;;;;;;;22.58;10.07;;;1.10;99.90;;;;;;5020693;28;20427;-74